Data for 04/16/2007

Time Sea-Level Adjusted Pressure Absolute Pressure Temperature Relative Humidity Dew Point   
(mb) (inHg) (mb) (inHg) (C) (F) (%) (C) (F)
00:05 1022 30.18 851 25.13 4.4 39.9 89 2.7 36.9
00:10 1022 30.18 851 25.13 4.4 40 88 2.6 36.8
00:15 1022 30.18 851 25.13 4.4 40 89 2.8 37
00:20 1022 30.18 851 25.13 4.4 39.9 88 2.7 36.8
00:25 1022 30.18 851 25.13 4.3 39.7 89 2.7 36.8
00:30 1022 30.18 851 25.13 4.3 39.8 89 2.7 36.9
00:35 1022 30.18 851 25.13 4.3 39.8 90 2.7 36.9
00:40 1022 30.18 851 25.13 4.3 39.7 91 3 37.3
00:45 1022 30.18 851 25.13 4.2 39.6 92 3 37.4
00:50 1022 30.18 851 25.13 4 39.3 93 2.9 37.3
00:55 1022 30.18 851 25.13 3.9 39.1 93 2.9 37.1
01:00 1022 30.18 851 25.13 3.9 39 93 2.9 37.1
01:05 1022 30.18 851 25.13 3.9 39 93 2.8 37.1
01:10 1022 30.18 851 25.13 3.9 39 93 2.8 37.1
01:15 1022 30.18 851 25.13 3.9 38.9 94 2.9 37.2
01:20 1022 30.18 851 25.13 3.9 38.9 94 3 37.5
01:25 1022 30.18 851 25.13 3.9 39 94 3.1 37.5
01:30 1022 30.18 851 25.13 3.9 39.1 95 3.2 37.7
01:35 1022 30.18 851 25.13 4 39.2 95 3.3 37.9
01:40 1022 30.18 851 25.13 3.9 39 94 3.1 37.5
01:45 1022 30.18 851 25.13 3.8 38.9 94 3 37.4
01:50 1022 30.18 851 25.13 3.8 38.9 95 3 37.5
01:55 1022 30.18 851 25.13 3.8 38.9 95 3.1 37.6
02:00 1022 30.18 851 25.13 3.9 39.1 95 3.3 37.9
02:05 1022 30.18 851 25.13 3.8 38.9 95 3.1 37.6
02:10 1021 30.15 851 25.13 3.8 38.9 94 3 37.3
02:15 1021 30.15 851 25.13 3.8 38.9 94 2.9 37.2
02:20 1021 30.15 851 25.13 3.8 38.9 93 2.9 37.1
02:25 1021 30.15 851 25.13 3.8 38.9 93 2.8 37.1
02:30 1021 30.15 851 25.13 3.9 38.9 94 2.9 37.2
02:35 1021 30.15 851 25.13 3.8 38.8 94 2.9 37.3
02:40 1021 30.15 851 25.13 3.7 38.6 94 2.8 37
02:45 1021 30.15 850 25.1 3.7 38.7 93 2.7 36.8
02:50 1021 30.15 850 25.1 3.7 38.7 93 2.6 36.8
02:55 1021 30.15 850 25.1 3.8 38.8 93 2.7 36.9
03:00 1021 30.15 850 25.1 3.8 38.8 93 2.7 36.9
03:05 1021 30.15 850 25.1 3.8 38.8 92 2.6 36.7
03:10 1021 30.15 850 25.1 3.8 38.8 89 2.2 35.9
03:15 1021 30.15 850 25.1 3.9 39 88 2.1 35.9
03:20 1021 30.15 850 25.1 4 39.2 91 2.6 36.6
03:25 1021 30.15 850 25.1 4 39.2 90 2.5 36.4
03:30 1021 30.15 850 25.1 3.9 39.1 89 2.4 36.2
03:35 1021 30.15 850 25.1 3.8 38.9 91 2.4 36.4
03:40 1021 30.15 851 25.13 3.7 38.7 93 2.6 36.7
03:45 1021 30.15 851 25.13 3.8 38.8 93 2.7 36.9
03:50 1021 30.15 851 25.13 3.7 38.7 92 2.6 36.7
03:55 1021 30.15 851 25.13 3.7 38.7 93 2.6 36.7
04:00 1021 30.15 851 25.13 3.7 38.7 93 2.7 36.8
04:05 1021 30.15 851 25.13 3.7 38.7 93 2.6 36.7
04:10 1021 30.15 851 25.13 3.8 38.8 91 2.5 36.5
04:15 1022 30.18 851 25.13 3.7 38.7 90 2.2 36
04:20 1022 30.18 851 25.13 3.8 38.8 91 2.5 36.4
04:25 1021 30.15 851 25.13 3.7 38.7 91 2.4 36.3
04:30 1022 30.18 851 25.13 3.8 38.8 90 2.3 36.1
04:35 1022 30.18 851 25.13 3.8 38.8 90 2.2 36
04:40 1021 30.15 851 25.13 3.8 38.8 92 2.5 36.5
04:45 1021 30.15 851 25.13 3.7 38.7 92 2.6 36.6
04:50 1021 30.15 851 25.13 3.7 38.7 92 2.5 36.5
04:55 1022 30.18 851 25.13 3.7 38.6 91 2.4 36.3
05:00 1022 30.18 851 25.13 3.7 38.7 92 2.5 36.5
05:05 1022 30.18 851 25.13 3.7 38.7 92 2.5 36.4
05:10 1022 30.18 851 25.13 3.8 38.8 91 2.5 36.5
05:15 1022 30.18 851 25.13 3.8 38.9 91 2.5 36.5
05:20 1022 30.18 851 25.13 3.8 38.8 91 2.5 36.6
05:25 1022 30.18 851 25.13 3.8 38.9 91 2.5 36.4
05:30 1022 30.18 851 25.13 3.8 38.8 91 2.4 36.3
05:35 1022 30.18 851 25.13 3.8 38.8 91 2.5 36.5
05:40 1022 30.18 851 25.13 3.7 38.6 92 2.5 36.4
05:45 1021 30.15 851 25.13 3.7 38.6 91 2.4 36.3
05:50 1022 30.18 851 25.13 3.6 38.5 91 2.3 36.1
05:55 1022 30.18 851 25.13 3.6 38.5 91 2.3 36.1
06:00 1021 30.15 851 25.13 3.6 38.5 91 2.2 36
06:05 1021 30.15 851 25.13 3.6 38.4 91 2.2 36
06:10 1021 30.15 851 25.13 3.5 38.3 91 2.2 35.9
06:15 1021 30.15 851 25.13 3.5 38.2 91 2.2 35.9
06:20 1021 30.15 851 25.13 3.4 38.1 91 2 35.7
06:25 1021 30.15 850 25.1 3.4 38.1 91 2.1 35.7
06:30 1021 30.15 850 25.1 3.5 38.2 89 1.9 35.4
06:35 1021 30.15 850 25.1 3.6 38.4 88 1.8 35.2
06:40 1021 30.15 850 25.1 3.6 38.4 86 1.5 34.7
06:45 1021 30.15 850 25.1 3.6 38.6 86 1.5 34.8
06:50 1021 30.15 850 25.1 3.6 38.6 85 1.4 34.6
06:55 1021 30.15 850 25.1 3.7 38.6 84 1.1 34
07:00 1021 30.15 850 25.1 3.8 38.9 81 0.9 33.7
07:05 1021 30.15 850 25.1 4 39.1 81 1 33.9
07:10 1021 30.15 850 25.1 4 39.3 80 1 33.8
07:15 1021 30.15 850 25.1 4.1 39.4 80 0.9 33.6
07:20 1021 30.15 850 25.1 4.1 39.4 80 1 33.7
07:25 1021 30.15 850 25.1 4 39.3 81 1 33.9
07:30 1021 30.15 850 25.1 4 39.1 81 0.9 33.7
07:35 1021 30.15 850 25.1 4 39.1 80 0.9 33.6
07:40 1021 30.15 850 25.1 4 39.3 79 0.8 33.4
07:45 1021 30.15 850 25.1 4.1 39.5 80 1 33.8
07:50 1021 30.15 850 25.1 4.2 39.6 79 0.9 33.7
07:55 1021 30.15 850 25.1 4.3 39.7 80 1.1 34
08:00 1021 30.15 850 25.1 4.5 40.1 80 1.4 34.5
08:05 1021 30.15 850 25.1 4.8 40.6 80 1.6 34.8
08:10 1021 30.15 850 25.1 5.1 41.2 78 1.5 34.7
08:15 1021 30.15 850 25.1 5.5 41.9 76 1.7 35
08:20 1021 30.15 850 25.1 5.6 42.1 76 1.7 35
08:25 1021 30.15 850 25.1 5.9 42.5 74 1.6 34.9
08:30 1021 30.15 850 25.1 6 42.8 74 1.7 35
08:35 1021 30.15 850 25.1 6 42.7 73 1.5 34.8
08:40 1021 30.15 850 25.1 6.2 43.2 72 1.6 34.9
08:45 1021 30.15 850 25.1 6.5 43.6 70 1.4 34.5
08:50 1021 30.15 850 25.1 6.6 43.8 68 1.1 33.9
08:55 1021 30.15 850 25.1 6.5 43.7 69 1.2 34.1
09:00 1021 30.15 850 25.1 6.7 44.1 66 0.8 33.5
09:05 1021 30.15 850 25.1 6.8 44.2 71 1.9 35.4
09:10 1021 30.15 850 25.1 6.5 43.7 75 2.5 36.5
09:15 1021 30.15 850 25.1 5.5 41.9 78 2 35.7
09:20 1021 30.15 850 25.1 5.6 42.2 77 2 35.5
09:25 1021 30.15 850 25.1 6 42.9 74 1.8 35.3
09:30 1021 30.15 850 25.1 6.5 43.7 73 2 35.5
09:35 1021 30.15 850 25.1 6.6 44 72 2 35.5
09:40 1021 30.15 850 25.1 7 44.5 71 2.1 35.8
09:45 1021 30.15 850 25.1 7.2 45 69 2 35.6
09:50 1021 30.15 850 25.1 7.4 45.2 66 1.5 34.7
09:55 1021 30.15 850 25.1 7.6 45.7 65 1.4 34.6
10:00 1021 30.15 850 25.1 7.5 45.5 64 1.2 34.2
10:05 1021 30.15 850 25.1 7.6 45.7 63 1.1 34
10:10 1021 30.15 850 25.1 7.6 45.7 65 1.4 34.6
10:15 1021 30.15 850 25.1 7.8 46 64 1.4 34.6
10:20 1021 30.15 850 25.1 7.9 46.2 64 1.6 34.9
10:25 1020 30.12 850 25.1 8.1 46.5 64 1.6 34.9
10:30 1020 30.12 850 25.1 7.9 46.1 65 1.7 35
10:35 1021 30.15 850 25.1 7.9 46.2 64 1.5 34.8
10:40 1021 30.15 850 25.1 8 46.3 63 1.3 34.4
10:45 1021 30.15 850 25.1 8.2 46.8 63 1.6 34.9
10:50 1020 30.12 850 25.1 8.5 47.3 63 1.9 35.5
10:55 1020 30.12 850 25.1 8.2 46.7 63 1.6 34.9
11:00 1020 30.12 850 25.1 8.4 47.1 61 1.3 34.4
11:05 1020 30.12 850 25.1 8.6 47.5 62 1.8 35.3
11:10 1020 30.12 849 25.07 9.1 48.3 60 1.7 35.1
11:15 1020 30.12 849 25.07 9.1 48.4 59 1.6 34.9
11:20 1020 30.12 849 25.07 9 48.3 59 1.4 34.6
11:25 1020 30.12 849 25.07 9.3 48.7 58 1.4 34.5
11:30 1020 30.12 849 25.07 9.3 48.7 57 1.3 34.4
11:35 1020 30.12 849 25.07 10 50.1 54 1.2 34.2
11:40 1020 30.12 849 25.07 10.3 50.5 54 1.4 34.6
11:45 1020 30.12 849 25.07 10.9 51.5 53 1.6 34.9
11:50 1020 30.12 849 25.07 10.6 51.2 54 1.7 35.1
11:55 1020 30.12 849 25.07 10.6 51 54 1.8 35.2
12:00 1020 30.12 849 25.07 10.3 50.5 55 1.6 34.9
12:05 1020 30.12 849 25.07 10.3 50.6 54 1.5 34.6
12:10 1020 30.12 849 25.07 10.5 50.8 54 1.5 34.7
12:15 1020 30.12 849 25.07 10.9 51.7 52 1.6 34.9
12:20 1019 30.09 849 25.07 11.6 52.9 49 1.4 34.5
12:25 1019 30.09 849 25.07 11.2 52.2 52 1.8 35.2
12:30 1019 30.09 849 25.07 10.9 51.6 52 1.6 34.8
12:35 1019 30.09 848 25.04 10.9 51.6 53 1.8 35.2
12:40 1019 30.09 848 25.04 11 51.8 53 1.7 35.1
12:45 1019 30.09 848 25.04 11.1 52 53 2 35.7
12:50 1019 30.09 848 25.04 11.5 52.6 49 1.1 34
12:55 1019 30.09 848 25.04 11.7 53 50 1.6 34.9
13:00 1019 30.09 848 25.04 11.9 53.3 50 1.8 35.2
13:05 1019 30.09 848 25.04 11.5 52.7 51 1.7 35.1
13:10 1019 30.09 848 25.04 11.5 52.8 50 1.5 34.7
13:15 1019 30.09 848 25.04 12 53.6 49 1.7 35.1
13:20 1019 30.09 848 25.04 12.6 54.6 47 1.8 35.2
13:25 1018 30.06 848 25.04 12.3 54.1 47 1.3 34.4
13:30 1018 30.06 848 25.04 12.1 53.8 48 1.4 34.5
13:35 1018 30.06 848 25.04 12 53.6 50 1.8 35.3
13:40 1018 30.06 847 25.01 12.3 54.1 47 1.3 34.3
13:45 1018 30.06 847 25.01 12.3 54.1 47 1.4 34.5
13:50 1018 30.06 847 25.01 12.2 54 47 1.4 34.5
13:55 1018 30.06 847 25.01 13.1 55.7 45 1.7 35
14:00 1018 30.06 847 25.01 12.5 54.4 48 1.7 35.1
14:05 1018 30.06 847 25.01 13 55.3 45 1.4 34.6
14:10 1018 30.06 847 25.01 13.9 57 43 1.5 34.8
14:15 1018 30.06 847 25.01 14.1 57.3 41 1.2 34.2
14:20 1018 30.06 847 25.01 13.6 56.5 44 1.6 34.9
14:25 1018 30.06 847 25.01 14.5 58.2 40 1 33.8
14:30 1018 30.06 847 25.01 14.3 57.7 42 1.6 34.9
14:35 1018 30.06 847 25.01 14.1 57.4 41 1.1 34
14:40 1018 30.06 847 25.01 14.6 58.2 40 1.2 34.1
14:45 1018 30.06 847 25.01 15.2 59.4 39 1.4 34.6
14:50 1018 30.06 847 25.01 16 60.8 37 1.4 34.5
14:55 1017 30.03 847 25.01 16.3 61.4 36 1.3 34.4
15:00 1017 30.03 847 25.01 16.2 61.1 37 1.4 34.6
15:05 1017 30.03 847 25.01 15.8 60.5 38 1.6 35
15:10 1017 30.03 846 24.98 16.3 61.4 36 1.4 34.5
15:15 1017 30.03 847 25.01 16.5 61.8 36 1.5 34.6
15:20 1017 30.03 846 24.98 16.1 60.9 39 2.3 36.2
15:25 1017 30.03 846 24.98 15.1 59.2 40 1.5 34.8
15:30 1017 30.03 846 24.98 15.1 59.2 42 2.5 36.5
15:35 1017 30.03 846 24.98 13.8 56.8 44 1.8 35.3
15:40 1017 30.03 846 24.98 14.4 57.9 41 1.5 34.7
15:45 1017 30.03 846 24.98 13.8 56.9 44 2 35.6
15:50 1017 30.03 846 24.98 14.1 57.4 42 1.3 34.4
15:55 1017 30.03 846 24.98 15.1 59.2 40 1.6 34.9
16:00 1017 30.03 846 24.98 16 60.9 37 1.4 34.6
16:05 1017 30.03 846 24.98 16.4 61.5 38 1.9 35.5
16:10 1017 30.03 846 24.98 16.5 61.7 37 1.9 35.4
16:15 1017 30.03 846 24.98 16.7 62.1 37 2.1 35.8
16:20 1017 30.03 846 24.98 16 60.7 39 2.1 35.8
16:25 1017 30.03 846 24.98 15.1 59.3 42 2.6 36.6
16:30 1017 30.03 846 24.98 15.1 59.2 40 1.6 34.9
16:35 1017 30.03 846 24.98 15.6 60.1 40 2.3 36.2
16:40 1017 30.03 846 24.98 15.5 59.9 39 1.7 35.1
16:45 1016 30 846 24.98 16.1 60.9 37 1.4 34.5
16:50 1016 30 846 24.98 16.6 61.9 37 1.8 35.3
16:55 1016 30 846 24.98 16.5 61.6 38 2.3 36.1
17:00 1016 30 846 24.98 16.4 61.5 37 1.9 35.4
17:05 1016 30 846 24.98 16 60.8 38 1.9 35.4
17:10 1016 30 846 24.98 15 59 42 2.2 35.9
17:15 1016 30 845 24.95 15.1 59.1 39 1.5 34.7
17:20 1016 30 845 24.95 15.2 59.4 39 1.5 34.6
17:25 1016 30 845 24.95 15.2 59.3 39 1.4 34.4
17:30 1016 30 845 24.95 15.6 60.1 37 1.2 34.2
17:35 1016 30 845 24.95 16 60.9 38 1.9 35.4
17:40 1016 30 845 24.95 15.8 60.4 38 1.5 34.7
17:45 1016 30 845 24.95 15.6 60.2 38 1.5 34.7
17:50 1016 30 845 24.95 15.6 60 39 1.7 35
17:55 1016 30 845 24.95 15.6 60 37 1.1 34
18:00 1016 30 845 24.95 15.6 60.1 37 1.1 34.1
18:05 1016 30 845 24.95 15.6 60 38 1.4 34.6
18:10 1016 30 845 24.95 15.1 59.1 40 1.7 35.1
18:15 1016 30 845 24.95 14.8 58.6 40 1.3 34.3
18:20 1016 30 845 24.95 14.8 58.7 39 1.2 34.2
18:25 1016 30 845 24.95 15.2 59.4 39 1.4 34.5
18:30 1016 30 845 24.95 15.1 59.2 41 2.1 35.8
18:35 1016 30 845 24.95 14.8 58.7 43 2.4 36.4
18:40 1016 30 845 24.95 14.8 58.7 44 2.6 36.7
18:45 1016 30 845 24.95 14.6 58.2 45 2.7 36.9
18:50 1016 30 845 24.95 14.4 57.9 44 2.5 36.5
18:55 1016 30 845 24.95 14.3 57.7 45 2.7 36.8
19:00 1016 30 845 24.95 14.1 57.4 46 2.7 36.8
19:05 1015 29.97 845 24.95 14 57.1 46 2.8 37
19:10 1015 29.97 845 24.95 13.8 56.9 48 3 37.4
19:15 1015 29.97 845 24.95 13.6 56.5 49 3.1 37.5
19:20 1015 29.97 845 24.95 13.3 56 50 3.2 37.8
19:25 1015 29.97 844 24.92 12.9 55.3 52 3.4 38.2
19:30 1015 29.97 844 24.92 12.7 54.8 53 3.5 38.3
19:35 1015 29.97 845 24.95 12.4 54.4 54 3.5 38.3
19:40 1015 29.97 845 24.95 12.3 54.1 55 3.6 38.4
19:45 1015 29.97 845 24.95 12.1 53.7 55 3.5 38.3
19:50 1015 29.97 845 24.95 11.9 53.5 56 3.4 38.1
19:55 1015 29.97 845 24.95 11.7 53.1 56 3.4 38.1
20:00 1015 29.97 845 24.95 11.6 52.8 57 3.4 38.2
20:05 1015 29.97 845 24.95 11.3 52.4 58 3.4 38.2
20:10 1015 29.97 844 24.92 11.2 52.2 58 3.3 38
20:15 1015 29.97 844 24.92 11.2 52.1 59 3.4 38.2
20:20 1015 29.97 844 24.92 11 51.9 59 3.4 38.2
20:25 1015 29.97 844 24.92 10.9 51.6 60 3.4 38.2
20:30 1015 29.97 844 24.92 10.7 51.3 61 3.5 38.2
20:35 1015 29.97 844 24.92 10.7 51.2 61 3.4 38.1
20:40 1015 29.97 844 24.92 10.6 51.1 61 3.4 38
20:45 1015 29.97 844 24.92 10.6 51 61 3.3 38
20:50 1015 29.97 844 24.92 10.6 51 61 3.3 38
20:55 1015 29.97 844 24.92 10.5 50.9 61 3.4 38.1
21:00 1015 29.97 844 24.92 10.6 51.1 60 3.2 37.8
21:05 1015 29.97 844 24.92 10.6 51.1 60 3.3 38
21:10 1015 29.97 844 24.92 10.5 51 61 3.3 37.9
21:15 1015 29.97 844 24.92 10.5 50.9 60 3.2 37.8
21:20 1015 29.97 844 24.92 10.5 51 61 3.3 38
21:25 1015 29.97 844 24.92 10.5 50.9 61 3.3 37.9
21:30 1015 29.97 844 24.92 10.4 50.6 61 3.3 37.9
21:35 1015 29.97 844 24.92 10.3 50.6 61 3.2 37.8
21:40 1015 29.97 844 24.92 10.3 50.5 62 3.2 37.8
21:45 1015 29.97 844 24.92 10.2 50.4 62 3.3 37.9
21:50 1015 29.97 844 24.92 10.2 50.3 62 3.3 37.9
21:55 1015 29.97 844 24.92 10.1 50.3 62 3.3 38
22:00 1015 29.97 844 24.92 10.1 50.2 62 3.3 37.9
22:05 1015 29.97 844 24.92 10.1 50.1 62 3.2 37.8
22:10 1015 29.97 844 24.92 10.1 50.2 62 3.3 37.9
22:15 1015 29.97 844 24.92 10.1 50.1 62 3.1 37.7
22:20 1015 29.97 844 24.92 10.1 50.1 62 3.3 37.9
22:25 1015 29.97 844 24.92 9.9 49.9 63 3.3 37.9
22:30 1015 29.97 844 24.92 9.8 49.7 63 3.3 37.9
22:35 1015 29.97 844 24.92 9.7 49.4 64 3.2 37.7
22:40 1015 29.97 844 24.92 9.6 49.3 64 3.2 37.7
22:45 1015 29.97 844 24.92 9.5 49.2 64 3.1 37.6
22:50 1015 29.97 844 24.92 9.4 48.9 65 3.1 37.7
22:55 1015 29.97 844 24.92 9.2 48.5 66 3.2 37.7
23:00 1015 29.97 844 24.92 9 48.1 67 3.3 37.9
23:05 1015 29.97 844 24.92 8.7 47.6 68 3.2 37.7
23:10 1015 29.97 844 24.92 8.5 47.4 68 3.1 37.6
23:15 1015 29.97 844 24.92 8.6 47.5 68 3.1 37.5
23:20 1015 29.97 844 24.92 8.6 47.5 68 3.1 37.6
23:25 1015 29.97 844 24.92 8.6 47.4 69 3.1 37.7
23:30 1015 29.97 844 24.92 8.5 47.3 69 3.1 37.6
23:35 1015 29.97 844 24.92 8.6 47.5 67 2.9 37.3
23:40 1015 29.97 844 24.92 8.8 47.8 67 3 37.4
23:45 1015 29.97 844 24.92 8.8 47.9 67 3 37.4
23:50 1015 29.97 844 24.92 8.8 47.8 67 3.1 37.6
23:55 1015 29.97 844 24.92 8.6 47.5 67 3 37.4
24:00 1015 29.97 844 24.92 8.7 47.6 67 3 37.4